sensor_id;sensor_type;location;lat;lon;timestamp;P1;durP1;ratioP1;P2;durP2;ratioP2
39442;SDS011;25147;52.142;9.960;2023-04-01T00:01:09;4.40;;;1.50;;
39442;SDS011;25147;52.142;9.960;2023-04-01T00:03:38;3.17;;;1.45;;
39442;SDS011;25147;52.142;9.960;2023-04-01T00:06:06;4.55;;;1.40;;
39442;SDS011;25147;52.142;9.960;2023-04-01T00:08:32;2.97;;;1.33;;
39442;SDS011;25147;52.142;9.960;2023-04-01T00:10:59;4.53;;;1.52;;
39442;SDS011;25147;52.142;9.960;2023-04-01T00:13:26;3.47;;;1.20;;
39442;SDS011;25147;52.142;9.960;2023-04-01T00:15:53;4.18;;;1.70;;
39442;SDS011;25147;52.142;9.960;2023-04-01T00:18:21;2.95;;;1.40;;
39442;SDS011;25147;52.142;9.960;2023-04-01T00:20:49;6.65;;;1.75;;
39442;SDS011;25147;52.142;9.960;2023-04-01T00:23:17;4.10;;;1.35;;
39442;SDS011;25147;52.142;9.960;2023-04-01T00:25:45;1.90;;;0.90;;
39442;SDS011;25147;52.142;9.960;2023-04-01T00:28:13;4.40;;;1.23;;
39442;SDS011;25147;52.142;9.960;2023-04-01T00:30:40;1.50;;;1.00;;
39442;SDS011;25147;52.142;9.960;2023-04-01T00:33:06;4.30;;;1.20;;
39442;SDS011;25147;52.142;9.960;2023-04-01T00:35:35;3.42;;;1.20;;
39442;SDS011;25147;52.142;9.960;2023-04-01T00:38:01;3.72;;;1.20;;
39442;SDS011;25147;52.142;9.960;2023-04-01T00:40:30;1.60;;;0.88;;
39442;SDS011;25147;52.142;9.960;2023-04-01T00:42:59;2.50;;;0.98;;
39442;SDS011;25147;52.142;9.960;2023-04-01T00:45:31;2.33;;;1.30;;
39442;SDS011;25147;52.142;9.960;2023-04-01T00:48:02;4.13;;;1.85;;
39442;SDS011;25147;52.142;9.960;2023-04-01T00:50:32;5.25;;;2.00;;
39442;SDS011;25147;52.142;9.960;2023-04-01T00:53:02;3.60;;;2.08;;
39442;SDS011;25147;52.142;9.960;2023-04-01T00:55:30;4.10;;;1.25;;
39442;SDS011;25147;52.142;9.960;2023-04-01T00:58:00;2.13;;;1.23;;
39442;SDS011;25147;52.142;9.960;2023-04-01T01:00:30;2.85;;;1.40;;
39442;SDS011;25147;52.142;9.960;2023-04-01T01:02:57;2.63;;;1.33;;
39442;SDS011;25147;52.142;9.960;2023-04-01T01:05:27;2.55;;;0.98;;
39442;SDS011;25147;52.142;9.960;2023-04-01T01:08:06;2.55;;;1.38;;
39442;SDS011;25147;52.142;9.960;2023-04-01T01:10:40;2.10;;;1.10;;
39442;SDS011;25147;52.142;9.960;2023-04-01T01:13:14;2.92;;;1.40;;
39442;SDS011;25147;52.142;9.960;2023-04-01T01:15:49;4.40;;;1.90;;
39442;SDS011;25147;52.142;9.960;2023-04-01T01:18:24;5.70;;;2.63;;
39442;SDS011;25147;52.142;9.960;2023-04-01T01:21:02;5.47;;;2.45;;
39442;SDS011;25147;52.142;9.960;2023-04-01T01:24:01;5.82;;;2.50;;
39442;SDS011;25147;52.142;9.960;2023-04-01T01:26:40;2.78;;;1.33;;
39442;SDS011;25147;52.142;9.960;2023-04-01T01:29:22;3.35;;;1.83;;
39442;SDS011;25147;52.142;9.960;2023-04-01T01:32:07;3.05;;;1.58;;
39442;SDS011;25147;52.142;9.960;2023-04-01T01:34:44;5.75;;;2.05;;
39442;SDS011;25147;52.142;9.960;2023-04-01T01:37:20;4.90;;;2.22;;
39442;SDS011;25147;52.142;9.960;2023-04-01T01:39:52;3.88;;;2.20;;
39442;SDS011;25147;52.142;9.960;2023-04-01T01:42:21;3.50;;;1.67;;
39442;SDS011;25147;52.142;9.960;2023-04-01T01:44:52;3.80;;;3.00;;
39442;SDS011;25147;52.142;9.960;2023-04-01T01:47:21;6.35;;;2.75;;
39442;SDS011;25147;52.142;9.960;2023-04-01T01:49:50;5.70;;;3.22;;
39442;SDS011;25147;52.142;9.960;2023-04-01T01:52:19;2.60;;;1.52;;
39442;SDS011;25147;52.142;9.960;2023-04-01T01:54:47;2.47;;;1.50;;
39442;SDS011;25147;52.142;9.960;2023-04-01T01:57:15;4.05;;;1.48;;
39442;SDS011;25147;52.142;9.960;2023-04-01T01:59:43;2.67;;;1.10;;
39442;SDS011;25147;52.142;9.960;2023-04-01T02:02:12;4.00;;;1.23;;
39442;SDS011;25147;52.142;9.960;2023-04-01T02:04:40;3.67;;;1.42;;
39442;SDS011;25147;52.142;9.960;2023-04-01T02:07:11;1.60;;;1.30;;
39442;SDS011;25147;52.142;9.960;2023-04-01T02:09:43;2.25;;;1.00;;
39442;SDS011;25147;52.142;9.960;2023-04-01T02:12:10;2.30;;;0.82;;
39442;SDS011;25147;52.142;9.960;2023-04-01T02:14:41;4.30;;;1.00;;
39442;SDS011;25147;52.142;9.960;2023-04-01T02:17:12;2.72;;;1.15;;
39442;SDS011;25147;52.142;9.960;2023-04-01T02:19:44;2.83;;;0.93;;
39442;SDS011;25147;52.142;9.960;2023-04-01T02:22:14;5.22;;;1.17;;
39442;SDS011;25147;52.142;9.960;2023-04-01T02:24:46;4.63;;;1.05;;
39442;SDS011;25147;52.142;9.960;2023-04-01T02:27:16;2.70;;;1.00;;
39442;SDS011;25147;52.142;9.960;2023-04-01T02:29:43;2.38;;;0.88;;
39442;SDS011;25147;52.142;9.960;2023-04-01T02:32:10;3.25;;;1.20;;
39442;SDS011;25147;52.142;9.960;2023-04-01T02:34:39;3.83;;;1.15;;
39442;SDS011;25147;52.142;9.960;2023-04-01T02:37:06;3.65;;;1.00;;
39442;SDS011;25147;52.142;9.960;2023-04-01T02:39:32;2.55;;;0.90;;
39442;SDS011;25147;52.142;9.960;2023-04-01T02:42:01;2.80;;;0.90;;
39442;SDS011;25147;52.142;9.960;2023-04-01T02:44:27;1.95;;;0.90;;
39442;SDS011;25147;52.142;9.960;2023-04-01T02:46:54;3.95;;;1.00;;
39442;SDS011;25147;52.142;9.960;2023-04-01T02:49:21;2.63;;;0.80;;
39442;SDS011;25147;52.142;9.960;2023-04-01T02:51:47;1.63;;;1.00;;
39442;SDS011;25147;52.142;9.960;2023-04-01T02:54:14;2.85;;;1.33;;
39442;SDS011;25147;52.142;9.960;2023-04-01T02:56:41;2.72;;;1.05;;
39442;SDS011;25147;52.142;9.960;2023-04-01T02:59:09;2.15;;;1.05;;
39442;SDS011;25147;52.142;9.960;2023-04-01T03:01:35;1.58;;;0.90;;
39442;SDS011;25147;52.142;9.960;2023-04-01T03:04:02;2.13;;;0.85;;
39442;SDS011;25147;52.142;9.960;2023-04-01T03:06:29;2.08;;;0.93;;
39442;SDS011;25147;52.142;9.960;2023-04-01T03:08:56;1.85;;;1.10;;
39442;SDS011;25147;52.142;9.960;2023-04-01T03:11:22;2.80;;;1.13;;
39442;SDS011;25147;52.142;9.960;2023-04-01T03:13:51;2.97;;;1.25;;
39442;SDS011;25147;52.142;9.960;2023-04-01T03:16:19;3.13;;;1.10;;
39442;SDS011;25147;52.142;9.960;2023-04-01T03:18:46;1.15;;;0.95;;
39442;SDS011;25147;52.142;9.960;2023-04-01T03:21:15;2.15;;;1.20;;
39442;SDS011;25147;52.142;9.960;2023-04-01T03:23:42;2.65;;;1.00;;
39442;SDS011;25147;52.142;9.960;2023-04-01T03:26:09;2.50;;;0.90;;
39442;SDS011;25147;52.142;9.960;2023-04-01T03:28:36;2.05;;;0.90;;
39442;SDS011;25147;52.142;9.960;2023-04-01T03:31:03;3.35;;;1.13;;
39442;SDS011;25147;52.142;9.960;2023-04-01T03:33:31;1.67;;;1.10;;
39442;SDS011;25147;52.142;9.960;2023-04-01T03:35:58;1.52;;;1.00;;
39442;SDS011;25147;52.142;9.960;2023-04-01T03:38:25;1.90;;;0.80;;
39442;SDS011;25147;52.142;9.960;2023-04-01T03:40:52;2.92;;;1.02;;
39442;SDS011;25147;52.142;9.960;2023-04-01T03:43:19;1.58;;;0.98;;
39442;SDS011;25147;52.142;9.960;2023-04-01T03:45:45;2.42;;;0.88;;
39442;SDS011;25147;52.142;9.960;2023-04-01T03:48:12;3.10;;;1.30;;
39442;SDS011;25147;52.142;9.960;2023-04-01T03:50:41;3.15;;;1.10;;
39442;SDS011;25147;52.142;9.960;2023-04-01T03:53:08;3.22;;;1.05;;
39442;SDS011;25147;52.142;9.960;2023-04-01T03:55:35;1.33;;;0.68;;
39442;SDS011;25147;52.142;9.960;2023-04-01T03:58:02;2.75;;;0.93;;
39442;SDS011;25147;52.142;9.960;2023-04-01T04:00:30;2.47;;;0.90;;
39442;SDS011;25147;52.142;9.960;2023-04-01T04:02:57;3.17;;;1.10;;
39442;SDS011;25147;52.142;9.960;2023-04-01T04:05:25;3.10;;;1.13;;
39442;SDS011;25147;52.142;9.960;2023-04-01T04:07:53;2.80;;;0.98;;
39442;SDS011;25147;52.142;9.960;2023-04-01T04:10:21;1.52;;;0.80;;
39442;SDS011;25147;52.142;9.960;2023-04-01T04:12:51;2.25;;;0.88;;
39442;SDS011;25147;52.142;9.960;2023-04-01T04:15:18;4.53;;;1.00;;
39442;SDS011;25147;52.142;9.960;2023-04-01T04:17:45;2.58;;;0.95;;
39442;SDS011;25147;52.142;9.960;2023-04-01T04:20:13;1.42;;;0.80;;
39442;SDS011;25147;52.142;9.960;2023-04-01T04:22:40;2.97;;;1.25;;
39442;SDS011;25147;52.142;9.960;2023-04-01T04:25:08;3.33;;;1.20;;
39442;SDS011;25147;52.142;9.960;2023-04-01T04:27:35;2.90;;;1.20;;
39442;SDS011;25147;52.142;9.960;2023-04-01T04:30:02;4.22;;;1.10;;
39442;SDS011;25147;52.142;9.960;2023-04-01T04:32:33;3.42;;;0.93;;
39442;SDS011;25147;52.142;9.960;2023-04-01T04:35:00;2.40;;;1.20;;
39442;SDS011;25147;52.142;9.960;2023-04-01T04:37:27;1.45;;;1.00;;
39442;SDS011;25147;52.142;9.960;2023-04-01T04:39:54;2.30;;;1.20;;
39442;SDS011;25147;52.142;9.960;2023-04-01T04:42:22;3.92;;;1.40;;
39442;SDS011;25147;52.142;9.960;2023-04-01T04:44:49;4.72;;;1.10;;
39442;SDS011;25147;52.142;9.960;2023-04-01T04:47:16;3.58;;;1.30;;
39442;SDS011;25147;52.142;9.960;2023-04-01T04:49:42;3.50;;;1.30;;
39442;SDS011;25147;52.142;9.960;2023-04-01T04:52:09;3.05;;;1.00;;
39442;SDS011;25147;52.142;9.960;2023-04-01T04:54:36;3.63;;;1.45;;
39442;SDS011;25147;52.142;9.960;2023-04-01T04:57:03;1.48;;;0.90;;
39442;SDS011;25147;52.142;9.960;2023-04-01T04:59:31;3.63;;;1.40;;
39442;SDS011;25147;52.142;9.960;2023-04-01T05:01:58;3.28;;;1.30;;
39442;SDS011;25147;52.142;9.960;2023-04-01T05:04:25;4.18;;;1.35;;
39442;SDS011;25147;52.142;9.960;2023-04-01T05:06:51;2.90;;;1.02;;
39442;SDS011;25147;52.142;9.960;2023-04-01T05:09:18;4.38;;;1.38;;
39442;SDS011;25147;52.142;9.960;2023-04-01T05:11:45;4.43;;;1.48;;
39442;SDS011;25147;52.142;9.960;2023-04-01T05:14:13;4.30;;;1.42;;
39442;SDS011;25147;52.142;9.960;2023-04-01T05:16:43;2.25;;;1.33;;
39442;SDS011;25147;52.142;9.960;2023-04-01T05:19:10;2.08;;;1.25;;
39442;SDS011;25147;52.142;9.960;2023-04-01T05:21:37;2.60;;;1.50;;
39442;SDS011;25147;52.142;9.960;2023-04-01T05:24:07;3.95;;;1.48;;
39442;SDS011;25147;52.142;9.960;2023-04-01T05:26:35;3.42;;;1.67;;
39442;SDS011;25147;52.142;9.960;2023-04-01T05:29:03;3.13;;;1.63;;
39442;SDS011;25147;52.142;9.960;2023-04-01T05:31:30;3.67;;;1.50;;
39442;SDS011;25147;52.142;9.960;2023-04-01T05:33:58;4.28;;;1.55;;
39442;SDS011;25147;52.142;9.960;2023-04-01T05:36:25;4.00;;;1.30;;
39442;SDS011;25147;52.142;9.960;2023-04-01T05:38:54;1.65;;;1.38;;
39442;SDS011;25147;52.142;9.960;2023-04-01T05:41:21;3.97;;;1.38;;
39442;SDS011;25147;52.142;9.960;2023-04-01T05:43:48;3.97;;;1.50;;
39442;SDS011;25147;52.142;9.960;2023-04-01T05:46:15;3.00;;;1.33;;
39442;SDS011;25147;52.142;9.960;2023-04-01T05:48:41;2.13;;;1.38;;
39442;SDS011;25147;52.142;9.960;2023-04-01T05:51:12;4.05;;;1.60;;
39442;SDS011;25147;52.142;9.960;2023-04-01T05:53:40;5.22;;;1.23;;
39442;SDS011;25147;52.142;9.960;2023-04-01T05:56:07;4.40;;;1.60;;
39442;SDS011;25147;52.142;9.960;2023-04-01T05:58:34;3.25;;;1.42;;
39442;SDS011;25147;52.142;9.960;2023-04-01T06:01:01;2.78;;;1.58;;
39442;SDS011;25147;52.142;9.960;2023-04-01T06:03:29;4.95;;;1.38;;
39442;SDS011;25147;52.142;9.960;2023-04-01T06:05:55;5.72;;;1.80;;
39442;SDS011;25147;52.142;9.960;2023-04-01T06:08:24;2.28;;;1.25;;
39442;SDS011;25147;52.142;9.960;2023-04-01T06:11:06;2.70;;;1.27;;
39442;SDS011;25147;52.142;9.960;2023-04-01T06:13:51;3.42;;;0.95;;
39442;SDS011;25147;52.142;9.960;2023-04-01T06:16:32;4.88;;;1.63;;
39442;SDS011;25147;52.142;9.960;2023-04-01T06:19:27;2.70;;;1.17;;
39442;SDS011;25147;52.142;9.960;2023-04-01T06:22:06;2.97;;;1.10;;
39442;SDS011;25147;52.142;9.960;2023-04-01T06:27:45;5.13;;;1.98;;
39442;SDS011;25147;52.142;9.960;2023-04-01T06:30:30;2.47;;;1.30;;
39442;SDS011;25147;52.142;9.960;2023-04-01T06:33:05;2.15;;;1.00;;
39442;SDS011;25147;52.142;9.960;2023-04-01T06:36:01;2.88;;;1.20;;
39442;SDS011;25147;52.142;9.960;2023-04-01T06:38:39;2.50;;;1.25;;
39442;SDS011;25147;52.142;9.960;2023-04-01T06:44:46;3.88;;;1.52;;
39442;SDS011;25147;52.142;9.960;2023-04-01T06:47:23;2.40;;;0.90;;
39442;SDS011;25147;52.142;9.960;2023-04-01T06:49:59;3.17;;;1.25;;
39442;SDS011;25147;52.142;9.960;2023-04-01T06:52:36;3.90;;;1.88;;
39442;SDS011;25147;52.142;9.960;2023-04-01T06:55:23;1.85;;;1.05;;
39442;SDS011;25147;52.142;9.960;2023-04-01T06:57:54;2.45;;;1.27;;
39442;SDS011;25147;52.142;9.960;2023-04-01T07:00:30;1.98;;;1.10;;
39442;SDS011;25147;52.142;9.960;2023-04-01T07:03:02;2.88;;;0.90;;
39442;SDS011;25147;52.142;9.960;2023-04-01T07:05:34;2.90;;;0.98;;
39442;SDS011;25147;52.142;9.960;2023-04-01T07:08:02;1.42;;;1.02;;
39442;SDS011;25147;52.142;9.960;2023-04-01T07:10:35;1.23;;;1.02;;
39442;SDS011;25147;52.142;9.960;2023-04-01T07:13:11;3.10;;;1.10;;
39442;SDS011;25147;52.142;9.960;2023-04-01T07:15:46;3.78;;;0.90;;
39442;SDS011;25147;52.142;9.960;2023-04-01T07:18:22;2.80;;;0.90;;
39442;SDS011;25147;52.142;9.960;2023-04-01T07:20:56;3.15;;;1.10;;
39442;SDS011;25147;52.142;9.960;2023-04-01T07:23:26;3.00;;;1.20;;
39442;SDS011;25147;52.142;9.960;2023-04-01T07:25:58;3.22;;;1.05;;
39442;SDS011;25147;52.142;9.960;2023-04-01T07:28:29;3.33;;;0.68;;
39442;SDS011;25147;52.142;9.960;2023-04-01T07:31:07;3.15;;;0.82;;
39442;SDS011;25147;52.142;9.960;2023-04-01T07:33:43;1.65;;;1.10;;
39442;SDS011;25147;52.142;9.960;2023-04-01T07:36:17;1.45;;;1.00;;
39442;SDS011;25147;52.142;9.960;2023-04-01T07:39:00;1.90;;;0.73;;
39442;SDS011;25147;52.142;9.960;2023-04-01T07:41:40;1.50;;;0.90;;
39442;SDS011;25147;52.142;9.960;2023-04-01T07:44:16;2.78;;;1.00;;
39442;SDS011;25147;52.142;9.960;2023-04-01T07:46:55;1.48;;;1.00;;
39442;SDS011;25147;52.142;9.960;2023-04-01T07:49:34;3.80;;;1.15;;
39442;SDS011;25147;52.142;9.960;2023-04-01T07:52:11;2.92;;;1.02;;
39442;SDS011;25147;52.142;9.960;2023-04-01T07:54:46;2.97;;;0.68;;
39442;SDS011;25147;52.142;9.960;2023-04-01T07:57:17;3.47;;;0.98;;
39442;SDS011;25147;52.142;9.960;2023-04-01T07:59:53;2.22;;;1.42;;
39442;SDS011;25147;52.142;9.960;2023-04-01T08:02:30;1.42;;;0.85;;
39442;SDS011;25147;52.142;9.960;2023-04-01T08:05:14;1.75;;;0.80;;
39442;SDS011;25147;52.142;9.960;2023-04-01T08:07:50;3.22;;;0.82;;
39442;SDS011;25147;52.142;9.960;2023-04-01T08:10:27;1.75;;;0.80;;
39442;SDS011;25147;52.142;9.960;2023-04-01T08:13:03;2.22;;;0.93;;
39442;SDS011;25147;52.142;9.960;2023-04-01T08:15:44;3.35;;;0.90;;
39442;SDS011;25147;52.142;9.960;2023-04-01T08:18:29;1.85;;;1.10;;
39442;SDS011;25147;52.142;9.960;2023-04-01T08:21:05;3.05;;;1.00;;
39442;SDS011;25147;52.142;9.960;2023-04-01T08:23:40;0.88;;;0.60;;
39442;SDS011;25147;52.142;9.960;2023-04-01T08:26:12;0.63;;;0.60;;
39442;SDS011;25147;52.142;9.960;2023-04-01T08:28:45;2.58;;;1.00;;
39442;SDS011;25147;52.142;9.960;2023-04-01T08:31:19;1.02;;;0.80;;
39442;SDS011;25147;52.142;9.960;2023-04-01T08:34:08;2.35;;;0.98;;
39442;SDS011;25147;52.142;9.960;2023-04-01T08:44:46;2.92;;;0.85;;
39442;SDS011;25147;52.142;9.960;2023-04-01T08:47:36;1.73;;;0.60;;
39442;SDS011;25147;52.142;9.960;2023-04-01T08:53:32;2.25;;;0.80;;
39442;SDS011;25147;52.142;9.960;2023-04-01T08:56:14;0.93;;;0.50;;
39442;SDS011;25147;52.142;9.960;2023-04-01T08:58:52;2.00;;;0.80;;
39442;SDS011;25147;52.142;9.960;2023-04-01T09:01:35;1.90;;;0.70;;
39442;SDS011;25147;52.142;9.960;2023-04-01T09:04:15;1.95;;;0.70;;
39442;SDS011;25147;52.142;9.960;2023-04-01T09:07:07;1.83;;;0.85;;
39442;SDS011;25147;52.142;9.960;2023-04-01T09:09:55;2.75;;;0.63;;
39442;SDS011;25147;52.142;9.960;2023-04-01T09:12:41;1.58;;;0.60;;
39442;SDS011;25147;52.142;9.960;2023-04-01T09:18:29;1.15;;;0.68;;
39442;SDS011;25147;52.142;9.960;2023-04-01T09:21:11;2.10;;;0.43;;
39442;SDS011;25147;52.142;9.960;2023-04-01T09:24:03;1.98;;;0.80;;
39442;SDS011;25147;52.142;9.960;2023-04-01T09:26:49;1.75;;;0.65;;
39442;SDS011;25147;52.142;9.960;2023-04-01T09:29:31;2.10;;;1.00;;
39442;SDS011;25147;52.142;9.960;2023-04-01T09:32:22;1.65;;;0.88;;
39442;SDS011;25147;52.142;9.960;2023-04-01T09:35:20;1.65;;;0.65;;
39442;SDS011;25147;52.142;9.960;2023-04-01T09:37:52;1.02;;;0.50;;
39442;SDS011;25147;52.142;9.960;2023-04-01T09:40:37;1.33;;;0.60;;
39442;SDS011;25147;52.142;9.960;2023-04-01T09:43:25;2.38;;;0.80;;
39442;SDS011;25147;52.142;9.960;2023-04-01T09:46:08;0.80;;;0.50;;
39442;SDS011;25147;52.142;9.960;2023-04-01T09:48:57;1.48;;;0.55;;
39442;SDS011;25147;52.142;9.960;2023-04-01T09:51:49;1.42;;;0.60;;
39442;SDS011;25147;52.142;9.960;2023-04-01T09:54:32;1.23;;;0.68;;
39442;SDS011;25147;52.142;9.960;2023-04-01T09:57:22;0.77;;;0.68;;
39442;SDS011;25147;52.142;9.960;2023-04-01T10:00:39;0.55;;;0.50;;
39442;SDS011;25147;52.142;9.960;2023-04-01T10:03:41;1.73;;;0.70;;
39442;SDS011;25147;52.142;9.960;2023-04-01T10:12:38;1.48;;;0.60;;
39442;SDS011;25147;52.142;9.960;2023-04-01T10:15:31;2.10;;;0.85;;
39442;SDS011;25147;52.142;9.960;2023-04-01T10:18:26;1.50;;;0.50;;
39442;SDS011;25147;52.142;9.960;2023-04-01T10:24:40;1.42;;;0.57;;
39442;SDS011;25147;52.142;9.960;2023-04-01T10:27:34;1.25;;;1.15;;
39442;SDS011;25147;52.142;9.960;2023-04-01T10:36:46;0.93;;;0.75;;
39442;SDS011;25147;52.142;9.960;2023-04-01T10:42:34;3.10;;;2.05;;
39442;SDS011;25147;52.142;9.960;2023-04-01T10:45:24;2.35;;;1.20;;
39442;SDS011;25147;52.142;9.960;2023-04-01T10:51:45;2.08;;;1.05;;
39442;SDS011;25147;52.142;9.960;2023-04-01T10:54:45;0.85;;;0.73;;
39442;SDS011;25147;52.142;9.960;2023-04-01T10:57:24;1.00;;;0.60;;
39442;SDS011;25147;52.142;9.960;2023-04-01T11:03:21;2.05;;;1.08;;
39442;SDS011;25147;52.142;9.960;2023-04-01T11:06:24;1.20;;;0.90;;
39442;SDS011;25147;52.142;9.960;2023-04-01T11:09:07;1.77;;;0.85;;
39442;SDS011;25147;52.142;9.960;2023-04-01T11:12:16;1.95;;;0.75;;
39442;SDS011;25147;52.142;9.960;2023-04-01T11:27:30;1.20;;;0.63;;
39442;SDS011;25147;52.142;9.960;2023-04-01T11:30:12;0.73;;;0.60;;
39442;SDS011;25147;52.142;9.960;2023-04-01T11:32:54;0.55;;;0.35;;
39442;SDS011;25147;52.142;9.960;2023-04-01T11:35:35;1.05;;;0.60;;
39442;SDS011;25147;52.142;9.960;2023-04-01T11:41:27;1.52;;;0.63;;
39442;SDS011;25147;52.142;9.960;2023-04-01T11:44:12;1.70;;;1.05;;
39442;SDS011;25147;52.142;9.960;2023-04-01T11:46:46;2.08;;;1.25;;
39442;SDS011;25147;52.142;9.960;2023-04-01T11:49:29;1.30;;;1.20;;
39442;SDS011;25147;52.142;9.960;2023-04-01T11:52:07;0.57;;;0.40;;
39442;SDS011;25147;52.142;9.960;2023-04-01T11:54:50;0.80;;;0.50;;
39442;SDS011;25147;52.142;9.960;2023-04-01T11:57:38;0.65;;;0.45;;
39442;SDS011;25147;52.142;9.960;2023-04-01T12:00:41;2.25;;;1.50;;
39442;SDS011;25147;52.142;9.960;2023-04-01T12:03:34;0.95;;;0.60;;
39442;SDS011;25147;52.142;9.960;2023-04-01T12:06:11;1.70;;;1.58;;
39442;SDS011;25147;52.142;9.960;2023-04-01T12:08:46;0.75;;;0.63;;
39442;SDS011;25147;52.142;9.960;2023-04-01T12:11:25;4.28;;;1.95;;
39442;SDS011;25147;52.142;9.960;2023-04-01T12:14:03;1.80;;;1.30;;
39442;SDS011;25147;52.142;9.960;2023-04-01T12:16:41;2.00;;;0.85;;
39442;SDS011;25147;52.142;9.960;2023-04-01T12:19:19;0.50;;;0.50;;
39442;SDS011;25147;52.142;9.960;2023-04-01T12:21:53;3.10;;;0.63;;
39442;SDS011;25147;52.142;9.960;2023-04-01T12:27:25;0.93;;;0.60;;
39442;SDS011;25147;52.142;9.960;2023-04-01T12:33:03;1.00;;;0.77;;
39442;SDS011;25147;52.142;9.960;2023-04-01T12:35:53;1.15;;;0.70;;
39442;SDS011;25147;52.142;9.960;2023-04-01T12:38:29;0.65;;;0.65;;
39442;SDS011;25147;52.142;9.960;2023-04-01T12:41:07;0.70;;;0.70;;
39442;SDS011;25147;52.142;9.960;2023-04-01T12:43:57;0.82;;;0.80;;
39442;SDS011;25147;52.142;9.960;2023-04-01T12:46:52;1.48;;;0.55;;
39442;SDS011;25147;52.142;9.960;2023-04-01T12:49:31;0.98;;;0.55;;
39442;SDS011;25147;52.142;9.960;2023-04-01T12:52:11;1.20;;;0.60;;
39442;SDS011;25147;52.142;9.960;2023-04-01T12:57:39;0.85;;;0.40;;
39442;SDS011;25147;52.142;9.960;2023-04-01T13:00:29;0.52;;;0.43;;
39442;SDS011;25147;52.142;9.960;2023-04-01T13:03:12;0.10;;;0.10;;
39442;SDS011;25147;52.142;9.960;2023-04-01T13:06:01;0.68;;;0.55;;
39442;SDS011;25147;52.142;9.960;2023-04-01T13:12:06;0.60;;;0.60;;
39442;SDS011;25147;52.142;9.960;2023-04-01T13:14:55;0.75;;;0.60;;
39442;SDS011;25147;52.142;9.960;2023-04-01T13:17:35;0.40;;;0.40;;
39442;SDS011;25147;52.142;9.960;2023-04-01T13:20:13;0.30;;;0.30;;
39442;SDS011;25147;52.142;9.960;2023-04-01T13:22:53;0.52;;;0.50;;
39442;SDS011;25147;52.142;9.960;2023-04-01T13:25:34;1.55;;;0.63;;
39442;SDS011;25147;52.142;9.960;2023-04-01T13:28:08;1.48;;;0.68;;
39442;SDS011;25147;52.142;9.960;2023-04-01T13:30:43;1.33;;;1.20;;
39442;SDS011;25147;52.142;9.960;2023-04-01T13:33:20;1.33;;;0.80;;
39442;SDS011;25147;52.142;9.960;2023-04-01T13:35:55;1.30;;;1.20;;
39442;SDS011;25147;52.142;9.960;2023-04-01T13:38:47;0.60;;;0.60;;
39442;SDS011;25147;52.142;9.960;2023-04-01T13:41:33;1.13;;;0.90;;
39442;SDS011;25147;52.142;9.960;2023-04-01T13:44:16;2.35;;;1.20;;
39442;SDS011;25147;52.142;9.960;2023-04-01T13:46:59;1.42;;;1.08;;
39442;SDS011;25147;52.142;9.960;2023-04-01T13:49:57;1.40;;;1.15;;
39442;SDS011;25147;52.142;9.960;2023-04-01T13:52:56;1.55;;;1.30;;
39442;SDS011;25147;52.142;9.960;2023-04-01T14:01:35;1.17;;;1.08;;
39442;SDS011;25147;52.142;9.960;2023-04-01T14:04:20;1.83;;;1.10;;
39442;SDS011;25147;52.142;9.960;2023-04-01T14:07:18;2.83;;;1.75;;
39442;SDS011;25147;52.142;9.960;2023-04-01T14:09:59;2.13;;;1.30;;
39442;SDS011;25147;52.142;9.960;2023-04-01T14:12:36;1.70;;;1.30;;
39442;SDS011;25147;52.142;9.960;2023-04-01T14:15:17;0.70;;;0.70;;
39442;SDS011;25147;52.142;9.960;2023-04-01T14:18:03;1.20;;;0.75;;
39442;SDS011;25147;52.142;9.960;2023-04-01T14:21:03;2.58;;;1.10;;
39442;SDS011;25147;52.142;9.960;2023-04-01T14:23:46;2.63;;;1.90;;
39442;SDS011;25147;52.142;9.960;2023-04-01T14:26:22;1.38;;;1.20;;
39442;SDS011;25147;52.142;9.960;2023-04-01T14:29:02;1.65;;;0.75;;
39442;SDS011;25147;52.142;9.960;2023-04-01T14:31:44;1.05;;;0.90;;
39442;SDS011;25147;52.142;9.960;2023-04-01T14:34:25;1.05;;;0.85;;
39442;SDS011;25147;52.142;9.960;2023-04-01T14:37:15;1.92;;;1.17;;
39442;SDS011;25147;52.142;9.960;2023-04-01T14:45:59;2.50;;;1.30;;
39442;SDS011;25147;52.142;9.960;2023-04-01T14:48:38;3.63;;;2.70;;
39442;SDS011;25147;52.142;9.960;2023-04-01T14:51:16;2.65;;;1.80;;
39442;SDS011;25147;52.142;9.960;2023-04-01T14:53:52;2.00;;;1.77;;
39442;SDS011;25147;52.142;9.960;2023-04-01T14:56:41;2.50;;;1.52;;
39442;SDS011;25147;52.142;9.960;2023-04-01T14:59:10;2.08;;;1.50;;
39442;SDS011;25147;52.142;9.960;2023-04-01T15:01:45;2.00;;;1.15;;
39442;SDS011;25147;52.142;9.960;2023-04-01T15:04:26;2.50;;;1.20;;
39442;SDS011;25147;52.142;9.960;2023-04-01T15:07:28;1.20;;;1.10;;
39442;SDS011;25147;52.142;9.960;2023-04-01T15:10:25;1.63;;;1.52;;
39442;SDS011;25147;52.142;9.960;2023-04-01T15:13:14;2.97;;;2.65;;
39442;SDS011;25147;52.142;9.960;2023-04-01T15:15:51;3.03;;;2.83;;
39442;SDS011;25147;52.142;9.960;2023-04-01T15:18:32;3.25;;;3.05;;
39442;SDS011;25147;52.142;9.960;2023-04-01T15:21:13;2.85;;;2.75;;
39442;SDS011;25147;52.142;9.960;2023-04-01T15:23:55;3.00;;;2.80;;
39442;SDS011;25147;52.142;9.960;2023-04-01T15:26:32;3.45;;;3.15;;
39442;SDS011;25147;52.142;9.960;2023-04-01T15:29:21;2.33;;;2.22;;
39442;SDS011;25147;52.142;9.960;2023-04-01T15:31:59;3.40;;;3.08;;
39442;SDS011;25147;52.142;9.960;2023-04-01T15:34:30;3.20;;;3.00;;
39442;SDS011;25147;52.142;9.960;2023-04-01T15:37:01;4.00;;;3.70;;
39442;SDS011;25147;52.142;9.960;2023-04-01T15:39:39;5.43;;;3.20;;
39442;SDS011;25147;52.142;9.960;2023-04-01T15:42:30;3.78;;;3.10;;
39442;SDS011;25147;52.142;9.960;2023-04-01T15:45:12;3.45;;;3.15;;
39442;SDS011;25147;52.142;9.960;2023-04-01T15:47:45;3.17;;;2.97;;
39442;SDS011;25147;52.142;9.960;2023-04-01T15:50:28;2.25;;;2.05;;
39442;SDS011;25147;52.142;9.960;2023-04-01T15:53:18;2.60;;;2.40;;
39442;SDS011;25147;52.142;9.960;2023-04-01T15:55:56;1.77;;;1.67;;
39442;SDS011;25147;52.142;9.960;2023-04-01T15:58:37;2.10;;;1.90;;
39442;SDS011;25147;52.142;9.960;2023-04-01T16:01:18;2.17;;;2.00;;
39442;SDS011;25147;52.142;9.960;2023-04-01T16:03:56;2.10;;;2.00;;
39442;SDS011;25147;52.142;9.960;2023-04-01T16:06:37;2.92;;;2.50;;
39442;SDS011;25147;52.142;9.960;2023-04-01T16:09:18;3.10;;;2.47;;
39442;SDS011;25147;52.142;9.960;2023-04-01T16:12:15;2.20;;;2.10;;
39442;SDS011;25147;52.142;9.960;2023-04-01T16:14:54;2.50;;;2.30;;
39442;SDS011;25147;52.142;9.960;2023-04-01T16:17:34;2.20;;;2.10;;
39442;SDS011;25147;52.142;9.960;2023-04-01T16:20:18;2.20;;;2.10;;
39442;SDS011;25147;52.142;9.960;2023-04-01T16:22:49;2.30;;;1.83;;
39442;SDS011;25147;52.142;9.960;2023-04-01T16:25:22;2.65;;;2.45;;
39442;SDS011;25147;52.142;9.960;2023-04-01T16:28:04;3.17;;;2.95;;
39442;SDS011;25147;52.142;9.960;2023-04-01T16:30:43;3.85;;;3.55;;
39442;SDS011;25147;52.142;9.960;2023-04-01T16:33:19;3.50;;;3.20;;
39442;SDS011;25147;52.142;9.960;2023-04-01T16:35:53;3.20;;;2.90;;
39442;SDS011;25147;52.142;9.960;2023-04-01T16:38:25;3.38;;;3.08;;
39442;SDS011;25147;52.142;9.960;2023-04-01T16:41:07;3.28;;;2.80;;
39442;SDS011;25147;52.142;9.960;2023-04-01T16:43:40;2.50;;;2.40;;
39442;SDS011;25147;52.142;9.960;2023-04-01T16:49:22;2.10;;;2.00;;
39442;SDS011;25147;52.142;9.960;2023-04-01T16:51:54;2.38;;;2.05;;
39442;SDS011;25147;52.142;9.960;2023-04-01T16:54:35;2.45;;;2.25;;
39442;SDS011;25147;52.142;9.960;2023-04-01T16:57:13;2.00;;;1.90;;
39442;SDS011;25147;52.142;9.960;2023-04-01T16:59:46;2.17;;;1.98;;
39442;SDS011;25147;52.142;9.960;2023-04-01T17:02:20;2.65;;;2.10;;
39442;SDS011;25147;52.142;9.960;2023-04-01T17:04:56;4.18;;;3.58;;
39442;SDS011;25147;52.142;9.960;2023-04-01T17:07:28;2.83;;;2.53;;
39442;SDS011;25147;52.142;9.960;2023-04-01T17:10:11;2.40;;;2.20;;
39442;SDS011;25147;52.142;9.960;2023-04-01T17:13:03;1.67;;;1.58;;